createdAt,value
2023-02-11T00:00:27.067Z,1.04
2023-02-11T00:01:27.292Z,1.04
2023-02-11T00:02:27.453Z,1.04
2023-02-11T00:03:27.558Z,1.04
2023-02-11T00:04:27.670Z,1.04
2023-02-11T00:05:27.815Z,1.04
2023-02-11T00:06:28.064Z,1.04
2023-02-11T00:07:28.123Z,1.04
2023-02-11T00:08:28.266Z,1.04
2023-02-11T00:09:30.357Z,1.04
2023-02-11T00:10:28.546Z,1.04
2023-02-11T00:11:28.677Z,1.04
2023-02-11T00:12:28.844Z,1.04
2023-02-11T00:13:29.000Z,1.04
2023-02-11T00:14:29.778Z,1.04
2023-02-11T00:15:29.297Z,1.04
2023-02-11T00:16:29.453Z,1.04
2023-02-11T00:17:29.526Z,1.04
2023-02-11T00:18:29.678Z,1.04
2023-02-11T00:19:29.847Z,1.04
2023-02-11T00:20:29.991Z,1.04
2023-02-11T00:21:30.175Z,1.04
2023-02-11T00:22:30.304Z,1.04
2023-02-11T00:23:30.450Z,1.04
2023-02-11T00:24:30.642Z,1.04
2023-02-11T00:25:30.742Z,1.04
2023-02-11T00:26:30.930Z,1.04
2023-02-11T00:27:31.070Z,1.04
2023-02-11T00:28:31.245Z,1.04
2023-02-11T00:29:31.869Z,1.04
2023-02-11T00:30:31.474Z,1.04
2023-02-11T00:31:31.671Z,1.04
2023-02-11T00:32:31.716Z,1.04
2023-02-11T00:33:31.884Z,1.04
2023-02-11T00:34:32.028Z,1.04
2023-02-11T00:35:32.184Z,1.04
2023-02-11T00:36:32.317Z,1.04
2023-02-11T00:37:32.501Z,1.04
2023-02-11T00:38:32.615Z,1.04
2023-02-11T00:39:32.768Z,1.04
2023-02-11T00:40:32.917Z,1.04
2023-02-11T00:41:33.020Z,1.04
2023-02-11T00:42:33.184Z,1.04
2023-02-11T00:43:33.284Z,1.04
2023-02-11T00:44:34.087Z,1.04
2023-02-11T00:45:33.566Z,1.04
2023-02-11T00:46:33.755Z,1.04
2023-02-11T00:47:33.896Z,1.04
2023-02-11T00:48:34.031Z,1.04
2023-02-11T00:49:34.106Z,1.04
2023-02-11T00:50:34.266Z,1.04
2023-02-11T00:51:34.445Z,1.04
2023-02-11T00:52:34.587Z,1.04
2023-02-11T00:53:34.764Z,1.04
2023-02-11T00:54:34.913Z,1.04
2023-02-11T00:55:35.023Z,1.04
2023-02-11T00:56:35.194Z,1.04
2023-02-11T00:57:35.339Z,1.04
2023-02-11T00:58:35.499Z,1.04
2023-02-11T00:59:36.157Z,1.04
2023-02-11T01:00:35.793Z,1.04
2023-02-11T01:01:36.012Z,1.04
2023-02-11T01:02:36.048Z,1.04
2023-02-11T01:03:36.205Z,1.04
2023-02-11T01:04:36.371Z,1.04
2023-02-11T01:05:36.565Z,1.04
2023-02-11T01:06:36.669Z,1.04
2023-02-11T01:07:36.806Z,1.04
2023-02-11T01:08:36.966Z,1.04
2023-02-11T01:09:37.050Z,1.04
2023-02-11T01:10:37.176Z,1.04
2023-02-11T01:11:37.334Z,1.04
2023-02-11T01:12:37.459Z,1.04
2023-02-11T01:13:37.618Z,1.04
2023-02-11T01:14:38.286Z,1.04
2023-02-11T01:15:37.958Z,1.04
2023-02-11T01:16:38.062Z,1.04
2023-02-11T01:17:38.210Z,1.04
2023-02-11T01:18:38.371Z,1.04
2023-02-11T01:19:38.550Z,1.04
2023-02-11T01:20:38.684Z,1.04
2023-02-11T01:21:38.839Z,1.04
2023-02-11T01:22:38.990Z,1.04
2023-02-11T01:23:39.138Z,1.04
2023-02-11T01:24:39.294Z,1.04
2023-02-11T01:25:39.470Z,1.04
2023-02-11T01:26:39.589Z,1.04
2023-02-11T01:27:39.737Z,1.04
2023-02-11T01:28:40.091Z,1.04
2023-02-11T01:29:40.511Z,1.04
2023-02-11T01:30:40.209Z,1.04
2023-02-11T01:31:40.335Z,1.04
2023-02-11T01:32:40.400Z,1.04
2023-02-11T01:33:40.544Z,1.04
2023-02-11T01:34:40.701Z,1.04
2023-02-11T01:35:40.851Z,1.04
2023-02-11T01:36:40.997Z,1.04
2023-02-11T01:37:41.164Z,1.04
2023-02-11T01:38:41.462Z,1.04
2023-02-11T01:39:41.457Z,1.04
2023-02-11T01:40:41.610Z,1.04
2023-02-11T01:41:41.774Z,1.04
2023-02-11T01:42:41.908Z,1.04
2023-02-11T01:43:42.062Z,1.04
2023-02-11T01:44:43.176Z,1.04
2023-02-11T01:45:42.316Z,1.04
2023-02-11T01:46:42.424Z,1.04
2023-02-11T01:47:42.578Z,1.04
2023-02-11T01:48:42.743Z,1.04
2023-02-11T01:49:43.764Z,1.04
2023-02-11T01:50:43.010Z,1.04
2023-02-11T01:51:43.171Z,1.04
2023-02-11T01:52:43.347Z,1.04
2023-02-11T01:53:43.472Z,1.04
2023-02-11T01:54:43.648Z,1.04
2023-02-11T01:55:43.787Z,1.04
2023-02-11T01:56:43.943Z,1.04
2023-02-11T01:57:44.121Z,1.04
2023-02-11T01:58:44.171Z,1.04
2023-02-11T01:59:45.222Z,1.04
2023-02-11T02:00:44.451Z,1.04
2023-02-11T02:01:44.668Z,1.04
2023-02-11T02:02:44.733Z,1.04
2023-02-11T02:03:44.894Z,1.04
2023-02-11T02:04:45.000Z,1.04
2023-02-11T02:05:45.151Z,1.04
2023-02-11T02:06:45.306Z,1.04
2023-02-11T02:07:45.400Z,1.04
2023-02-11T02:08:45.487Z,1.04
2023-02-11T02:09:45.682Z,1.04
2023-02-11T02:10:45.810Z,1.04
2023-02-11T02:11:45.962Z,1.04
2023-02-11T02:12:46.123Z,1.04
2023-02-11T02:13:46.264Z,1.04
2023-02-11T02:14:46.968Z,1.04
2023-02-11T02:15:46.580Z,1.04
2023-02-11T02:16:46.672Z,1.04
2023-02-11T02:17:46.807Z,1.04
2023-02-11T02:18:46.949Z,1.04
2023-02-11T02:19:47.111Z,1.04
2023-02-11T02:20:47.257Z,1.04
2023-02-11T02:21:47.416Z,1.04
2023-02-11T02:22:47.562Z,1.04
2023-02-11T02:23:47.716Z,1.04
2023-02-11T02:24:47.910Z,1.04
2023-02-11T02:25:48.255Z,1.04
2023-02-11T02:26:48.068Z,1.04
2023-02-11T02:27:48.242Z,1.04
2023-02-11T02:28:48.375Z,1.04
2023-02-11T02:29:49.107Z,1.04
2023-02-11T02:30:48.724Z,1.04
2023-02-11T02:31:48.842Z,1.04
2023-02-11T02:32:48.972Z,1.04
2023-02-11T02:33:49.076Z,1.04
2023-02-11T02:34:49.228Z,1.04
2023-02-11T02:35:49.587Z,1.04
2023-02-11T02:36:49.445Z,1.04
2023-02-11T02:37:49.545Z,1.04
2023-02-11T02:38:50.236Z,1.04
2023-02-11T02:39:49.878Z,1.04
2023-02-11T02:40:50.029Z,1.04
2023-02-11T02:41:50.199Z,1.04
2023-02-11T02:42:50.330Z,1.04
2023-02-11T02:43:50.488Z,1.04
2023-02-11T02:44:51.211Z,1.04
2023-02-11T02:45:51.046Z,1.04
2023-02-11T02:46:50.992Z,1.04
2023-02-11T02:47:51.090Z,1.04
2023-02-11T02:48:51.245Z,1.04
2023-02-11T02:49:51.355Z,1.04
2023-02-11T02:50:51.488Z,1.04
2023-02-11T02:51:51.614Z,1.04
2023-02-11T02:52:51.697Z,1.04
2023-02-11T02:53:51.847Z,1.04
2023-02-11T02:54:51.999Z,1.04
2023-02-11T02:55:52.233Z,1.04
2023-02-11T02:56:52.276Z,1.04
2023-02-11T02:57:52.421Z,1.04
2023-02-11T02:58:52.556Z,1.04
2023-02-11T02:59:53.236Z,1.04
2023-02-11T03:00:52.852Z,1.04
2023-02-11T03:01:52.917Z,1.04
2023-02-11T03:02:53.030Z,1.04
2023-02-11T03:03:53.235Z,1.04
2023-02-11T03:04:53.328Z,1.04
2023-02-11T03:05:53.667Z,1.04
2023-02-11T03:06:53.574Z,1.04
2023-02-11T03:07:53.721Z,1.04
2023-02-11T03:08:53.892Z,1.04
2023-02-11T03:09:54.025Z,1.04
2023-02-11T03:10:54.196Z,1.04
2023-02-11T03:11:54.282Z,1.04
2023-02-11T03:12:54.433Z,1.04
2023-02-11T03:13:54.612Z,1.04
2023-02-11T03:14:55.262Z,1.04
2023-02-11T03:15:55.006Z,1.04
2023-02-11T03:16:54.991Z,1.04
2023-02-11T03:17:55.093Z,1.04
2023-02-11T03:18:55.260Z,1.04
2023-02-11T03:19:55.410Z,1.04
2023-02-11T03:20:55.546Z,1.04
2023-02-11T03:21:55.714Z,1.04
2023-02-11T03:22:55.861Z,1.04
2023-02-11T03:23:56.026Z,1.04
2023-02-11T03:24:56.152Z,1.04
2023-02-11T03:25:56.273Z,1.04
2023-02-11T03:26:56.414Z,1.04
2023-02-11T03:27:56.603Z,1.04
2023-02-11T03:28:56.673Z,1.04
2023-02-11T03:29:57.310Z,1.04
2023-02-11T03:30:56.993Z,1.04
2023-02-11T03:31:57.180Z,1.04
2023-02-11T03:32:57.277Z,1.04
2023-02-11T03:33:57.423Z,1.04
2023-02-11T03:34:57.570Z,1.04
2023-02-11T03:35:57.676Z,1.04
2023-02-11T03:36:57.826Z,1.04
2023-02-11T03:37:58.004Z,1.04
2023-02-11T03:38:58.141Z,1.04
2023-02-11T03:39:58.222Z,1.04
2023-02-11T03:40:58.402Z,1.04
2023-02-11T03:41:58.548Z,1.04
2023-02-11T03:42:58.689Z,1.04
2023-02-11T03:43:58.837Z,1.04
2023-02-11T03:44:59.456Z,1.04
2023-02-11T03:45:59.191Z,1.04
2023-02-11T03:46:59.300Z,1.04
2023-02-11T03:47:59.467Z,1.04
2023-02-11T03:48:59.613Z,1.04
2023-02-11T03:49:59.739Z,1.04
2023-02-11T03:50:59.911Z,1.04
2023-02-11T03:51:59.999Z,1.04
2023-02-11T03:53:00.173Z,1.04
2023-02-11T03:54:00.269Z,1.04
2023-02-11T03:55:00.354Z,1.04
2023-02-11T03:56:00.531Z,1.04
2023-02-11T03:57:00.664Z,1.04
2023-02-11T03:58:00.828Z,1.04
2023-02-11T03:59:00.956Z,1.04
2023-02-11T04:00:01.590Z,1.04
2023-02-11T04:01:01.260Z,1.04
2023-02-11T04:02:01.317Z,1.04
2023-02-11T04:03:01.466Z,1.04
2023-02-11T04:04:01.593Z,1.04
2023-02-11T04:05:01.676Z,1.04
2023-02-11T04:06:01.801Z,1.04
2023-02-11T04:07:01.967Z,1.04
2023-02-11T04:08:02.105Z,1.04
2023-02-11T04:09:02.230Z,1.04
2023-02-11T04:10:02.376Z,1.04
2023-02-11T04:11:02.515Z,1.04
2023-02-11T04:12:02.689Z,1.04
2023-02-11T04:13:02.806Z,1.04
2023-02-11T04:14:02.929Z,1.04
2023-02-11T04:15:03.550Z,1.04
2023-02-11T04:16:03.315Z,1.04
2023-02-11T04:17:03.292Z,1.04
2023-02-11T04:18:03.449Z,1.04
2023-02-11T04:19:03.585Z,1.04
2023-02-11T04:20:03.734Z,1.04
2023-02-11T04:21:03.890Z,1.04
2023-02-11T04:22:04.041Z,1.04
2023-02-11T04:23:04.198Z,1.04
2023-02-11T04:24:04.347Z,1.04
2023-02-11T04:25:04.486Z,1.04
2023-02-11T04:26:04.663Z,1.04
2023-02-11T04:27:04.810Z,1.04
2023-02-11T04:28:04.985Z,1.04
2023-02-11T04:29:05.088Z,1.04
2023-02-11T04:30:05.826Z,1.04
2023-02-11T04:31:05.594Z,1.04
2023-02-11T04:32:05.609Z,1.04
2023-02-11T04:33:05.651Z,1.04
2023-02-11T04:34:05.810Z,1.04
2023-02-11T04:35:05.958Z,1.04
2023-02-11T04:36:06.099Z,1.04
2023-02-11T04:37:06.220Z,1.04
2023-02-11T04:38:06.362Z,1.04
2023-02-11T04:39:06.513Z,1.04
2023-02-11T04:40:06.614Z,1.04
2023-02-11T04:41:06.761Z,1.04
2023-02-11T04:42:06.877Z,1.04
2023-02-11T04:43:07.014Z,1.04
2023-02-11T04:44:07.118Z,1.04
2023-02-11T04:45:07.747Z,1.04
2023-02-11T04:46:07.398Z,1.04
2023-02-11T04:47:07.528Z,1.04
2023-02-11T04:48:07.629Z,1.04
2023-02-11T04:49:07.788Z,1.04
2023-02-11T04:50:07.952Z,1.04
2023-02-11T04:51:08.071Z,1.04
2023-02-11T04:52:08.252Z,1.04
2023-02-11T04:53:08.378Z,1.04
2023-02-11T04:54:08.540Z,1.04
2023-02-11T04:55:08.677Z,1.04
2023-02-11T04:56:08.831Z,1.04
2023-02-11T04:57:09.017Z,1.04
2023-02-11T04:58:09.136Z,1.04
2023-02-11T04:59:09.211Z,1.04
2023-02-11T05:00:09.328Z,1.04
2023-02-11T05:01:09.462Z,1.04
2023-02-11T05:02:09.628Z,1.04
2023-02-11T05:03:09.762Z,1.04
2023-02-11T05:04:10.720Z,1.04
2023-02-11T05:05:10.127Z,1.04
2023-02-11T05:06:10.258Z,1.04
2023-02-11T05:07:10.406Z,1.04
2023-02-11T05:08:10.507Z,1.04
2023-02-11T05:09:10.604Z,1.04
2023-02-11T05:10:10.756Z,1.04
2023-02-11T05:11:10.922Z,1.04
2023-02-11T05:12:11.083Z,1.04
2023-02-11T05:13:11.215Z,1.04
2023-02-11T05:14:11.333Z,1.04
2023-02-11T05:15:11.986Z,1.04
2023-02-11T05:16:11.772Z,1.04
2023-02-11T05:17:11.727Z,1.04
2023-02-11T05:18:11.873Z,1.04
2023-02-11T05:19:12.057Z,1.04
2023-02-11T05:20:12.173Z,1.04
2023-02-11T05:21:12.283Z,1.04
2023-02-11T05:22:12.426Z,1.04
2023-02-11T05:23:12.576Z,1.04
2023-02-11T05:24:12.757Z,1.04
2023-02-11T05:25:12.829Z,1.04
2023-02-11T05:26:12.970Z,1.04
2023-02-11T05:27:13.145Z,1.04
2023-02-11T05:28:13.391Z,1.04
2023-02-11T05:29:13.394Z,1.04
2023-02-11T05:30:14.080Z,1.04
2023-02-11T05:31:13.726Z,1.04
2023-02-11T05:32:13.815Z,1.04
2023-02-11T05:33:13.894Z,1.04
2023-02-11T05:34:14.052Z,1.04
2023-02-11T05:35:14.153Z,1.04
2023-02-11T05:36:14.264Z,1.04
2023-02-11T05:37:14.409Z,1.04
2023-02-11T05:38:14.554Z,1.04
2023-02-11T05:39:14.696Z,1.04
2023-02-11T05:40:14.863Z,1.04
2023-02-11T05:41:15.009Z,1.04
2023-02-11T05:42:15.156Z,1.04
2023-02-11T05:43:15.318Z,1.04
2023-02-11T05:44:15.479Z,1.04
2023-02-11T05:45:15.617Z,1.04
2023-02-11T05:46:15.830Z,1.04
2023-02-11T05:47:15.920Z,1.04
2023-02-11T05:48:16.057Z,1.04
2023-02-11T05:49:16.224Z,1.04
2023-02-11T05:50:16.369Z,1.04
2023-02-11T05:51:16.483Z,1.04
2023-02-11T05:52:16.631Z,1.04
2023-02-11T05:53:16.717Z,1.04
2023-02-11T05:54:16.859Z,1.04
2023-02-11T05:55:16.988Z,1.04
2023-02-11T05:56:17.133Z,1.04
2023-02-11T05:57:17.271Z,2
2023-02-11T05:58:17.447Z,2
2023-02-11T05:59:18.127Z,2
2023-02-11T06:00:17.674Z,2
2023-02-11T06:01:17.796Z,3.04
2023-02-11T06:02:17.963Z,3.04
2023-02-11T06:03:18.147Z,3.04
2023-02-11T06:04:18.202Z,4
2023-02-11T06:05:18.341Z,5.04
2023-02-11T06:06:18.503Z,5.04
2023-02-11T06:07:18.638Z,6
2023-02-11T06:08:18.792Z,7.04
2023-02-11T06:09:18.949Z,8
2023-02-11T06:10:19.099Z,9.04
2023-02-11T06:11:19.239Z,11.04
2023-02-11T06:12:19.352Z,13.04
2023-02-11T06:13:19.498Z,15.04
2023-02-11T06:14:20.318Z,17.04
2023-02-11T06:15:19.801Z,19.04
2023-02-11T06:16:20.017Z,21.04
2023-02-11T06:17:20.053Z,24
2023-02-11T06:18:20.184Z,28
2023-02-11T06:19:20.348Z,32
2023-02-11T06:20:20.538Z,37.04
2023-02-11T06:21:20.664Z,40
2023-02-11T06:22:20.829Z,42
2023-02-11T06:23:20.959Z,47.04
2023-02-11T06:24:44.273Z,52
2023-02-11T06:25:21.183Z,56
2023-02-11T06:26:21.286Z,62
2023-02-11T06:27:21.425Z,70
2023-02-11T06:28:21.592Z,79.04
2023-02-11T06:29:22.244Z,93.04
2023-02-11T06:30:21.810Z,100
2023-02-11T06:31:22.050Z,109.04
2023-02-11T06:32:39.776Z,126
2023-02-11T06:33:22.279Z,141.04
2023-02-11T06:34:22.436Z,159.04
2023-02-11T06:35:22.608Z,174.08
2023-02-11T06:36:22.744Z,183.04
2023-02-11T06:37:22.880Z,203.04
2023-02-11T06:38:23.034Z,213.12
2023-02-11T06:39:23.185Z,229.12
2023-02-11T06:40:23.359Z,256
2023-02-11T06:41:23.506Z,285.12
2023-02-11T06:42:23.596Z,301.12
2023-02-11T06:43:23.747Z,323.04
2023-02-11T06:44:24.362Z,360
2023-02-11T06:45:24.040Z,395.2
2023-02-11T06:46:24.295Z,409.28
2023-02-11T06:47:24.365Z,402.24
2023-02-11T06:48:24.517Z,414.08
2023-02-11T06:49:24.633Z,424
2023-02-11T06:50:24.773Z,421.12
2023-02-11T06:51:24.906Z,433.28
2023-02-11T06:52:25.073Z,508.16
2023-02-11T06:53:25.225Z,590.08
2023-02-11T06:54:25.358Z,624
2023-02-11T06:55:25.527Z,640
2023-02-11T06:56:25.653Z,660.48
2023-02-11T06:57:25.754Z,643.2
2023-02-11T06:58:25.902Z,666.24
2023-02-11T06:59:27.132Z,730.24
2023-02-11T07:00:26.161Z,771.2
2023-02-11T07:01:26.380Z,877.44
2023-02-11T07:02:26.537Z,930.56
2023-02-11T07:03:26.624Z,922.24
2023-02-11T07:04:26.771Z,908.16
2023-02-11T07:05:26.910Z,884.48
2023-02-11T07:06:27.069Z,949.12
2023-02-11T07:07:27.192Z,1024
2023-02-11T07:08:27.330Z,1045.12
2023-02-11T07:09:27.427Z,1047.04
2023-02-11T07:10:27.529Z,1116.16
2023-02-11T07:11:27.733Z,1111.04
2023-02-11T07:12:27.828Z,1013.12
2023-02-11T07:13:27.937Z,968.32
2023-02-11T07:14:28.643Z,1016.32
2023-02-11T07:15:28.246Z,1129.6
2023-02-11T07:16:28.472Z,1259.52
2023-02-11T07:17:28.475Z,1550.08
2023-02-11T07:18:28.590Z,1816.32
2023-02-11T07:19:28.683Z,2035.2
2023-02-11T07:20:28.837Z,2122.24
2023-02-11T07:21:28.994Z,2117.12
2023-02-11T07:22:29.135Z,2152.96
2023-02-11T07:23:29.229Z,2136.32
2023-02-11T07:24:29.393Z,2092.8
2023-02-11T07:25:29.549Z,2146.56
2023-02-11T07:26:29.697Z,2200.32
2023-02-11T07:27:29.836Z,1989.12
2023-02-11T07:28:30.066Z,1812.48
2023-02-11T07:29:30.161Z,1752.32
2023-02-11T07:30:30.295Z,1632
2023-02-11T07:31:30.547Z,1495.04
2023-02-11T07:32:30.514Z,1459.2
2023-02-11T07:33:30.640Z,1354.24
2023-02-11T07:34:30.783Z,1253.12
2023-02-11T07:35:30.903Z,1177.6
2023-02-11T07:36:31.088Z,1180.16
2023-02-11T07:37:31.242Z,1241.6
2023-02-11T07:38:31.396Z,1461.76
2023-02-11T07:39:31.536Z,1644.8
2023-02-11T07:40:31.721Z,1945.6
2023-02-11T07:41:31.829Z,2268.16
2023-02-11T07:42:32.018Z,2365.44
2023-02-11T07:43:32.147Z,2406.4
2023-02-11T07:44:32.939Z,2528
2023-02-11T07:45:32.450Z,2560
2023-02-11T07:46:32.650Z,2521.6
2023-02-11T07:47:32.626Z,2588.16
2023-02-11T07:48:32.701Z,2726.4
2023-02-11T07:49:32.846Z,2597.12
2023-02-11T07:50:32.953Z,2885.12
2023-02-11T07:51:33.050Z,3238.4
2023-02-11T07:52:33.774Z,3345.92
2023-02-11T07:53:33.396Z,3279.36
2023-02-11T07:54:33.538Z,3566.08
2023-02-11T07:55:33.701Z,3781.12
2023-02-11T07:56:33.792Z,3873.28
2023-02-11T07:57:33.959Z,4175.36
2023-02-11T07:58:34.094Z,4451.84
2023-02-11T07:59:34.823Z,4620.8
2023-02-11T08:00:34.457Z,4597.76
2023-02-11T08:01:34.463Z,4797.44
2023-02-11T08:02:34.618Z,4871.68
2023-02-11T08:03:34.714Z,4695.04
2023-02-11T08:04:34.869Z,4689.92
2023-02-11T08:05:35.002Z,4631.04
2023-02-11T08:06:35.101Z,4385.28
2023-02-11T08:07:35.247Z,4024.32
2023-02-11T08:08:35.416Z,3919.36
2023-02-11T08:09:35.564Z,3988.48
2023-02-11T08:10:35.732Z,4055.04
2023-02-11T08:11:35.860Z,4001.28
2023-02-11T08:12:35.978Z,3937.28
2023-02-11T08:13:36.128Z,3791.36
2023-02-11T08:14:36.746Z,3612.16
2023-02-11T08:15:36.442Z,3182.08
2023-02-11T08:16:36.574Z,2990.08
2023-02-11T08:17:36.695Z,2882.56
2023-02-11T08:18:36.825Z,2933.76
2023-02-11T08:19:36.995Z,3046.4
2023-02-11T08:20:37.142Z,3092.48
2023-02-11T08:21:37.310Z,3205.12
2023-02-11T08:22:37.440Z,3397.12
2023-02-11T08:23:37.540Z,3402.24
2023-02-11T08:24:37.698Z,3279.36
2023-02-11T08:25:37.836Z,3151.36
2023-02-11T08:26:37.940Z,3031.04
2023-02-11T08:27:38.096Z,3043.84
2023-02-11T08:28:38.243Z,3215.36
2023-02-11T08:29:38.888Z,3299.84
2023-02-11T08:30:38.548Z,3059.2
2023-02-11T08:31:38.854Z,2777.6
2023-02-11T08:32:38.852Z,2744.32
2023-02-11T08:33:38.990Z,2913.28
2023-02-11T08:34:39.072Z,2967.04
2023-02-11T08:35:39.868Z,3072
2023-02-11T08:36:39.408Z,3343.36
2023-02-11T08:37:39.493Z,3438.08
2023-02-11T08:38:39.636Z,3558.4
2023-02-11T08:39:39.746Z,4162.56
2023-02-11T08:40:39.909Z,4193.28
2023-02-11T08:41:39.989Z,4149.76
2023-02-11T08:42:40.105Z,4303.36
2023-02-11T08:43:40.202Z,4426.24
2023-02-11T08:44:40.892Z,4490.24
2023-02-11T08:45:40.522Z,4595.2
2023-02-11T08:46:40.560Z,4544
2023-02-11T08:47:40.710Z,4390.4
2023-02-11T08:48:40.888Z,4377.6
2023-02-11T08:49:40.966Z,4595.2
2023-02-11T08:50:41.111Z,4561.92
2023-02-11T08:51:41.281Z,4426.24
2023-02-11T08:52:41.423Z,4439.04
2023-02-11T08:53:41.579Z,4464.64
2023-02-11T08:54:41.739Z,4495.36
2023-02-11T08:55:41.883Z,4367.36
2023-02-11T08:56:42.037Z,4080.64
2023-02-11T08:57:42.217Z,3325.44
2023-02-11T08:58:42.347Z,2798.08
2023-02-11T08:59:42.980Z,2749.44
2023-02-11T09:00:42.633Z,2977.28
2023-02-11T09:01:42.817Z,3443.2
2023-02-11T09:02:42.987Z,4503.04
2023-02-11T09:03:43.088Z,5765.12
2023-02-11T09:04:43.239Z,6461.44
2023-02-11T09:05:43.388Z,6476.8
2023-02-11T09:06:43.556Z,6906.88
2023-02-11T09:07:43.715Z,7229.44
2023-02-11T09:08:46.268Z,7239.68
2023-02-11T09:09:44.009Z,7787.52
2023-02-11T09:10:44.164Z,8832
2023-02-11T09:11:44.335Z,8949.76
2023-02-11T09:12:44.479Z,8094.72
2023-02-11T09:13:44.620Z,6497.28
2023-02-11T09:14:45.257Z,6215.68
2023-02-11T09:15:44.795Z,7362.56
2023-02-11T09:16:45.016Z,7372.8
2023-02-11T09:17:45.127Z,8023.04
2023-02-11T09:18:45.250Z,9221.12
2023-02-11T09:19:45.370Z,10833.92
2023-02-11T09:20:45.508Z,11069.439
2023-02-11T09:21:45.637Z,11601.92
2023-02-11T09:22:45.765Z,10813.439
2023-02-11T09:23:45.862Z,9154.56
2023-02-11T09:24:46.041Z,9036.8
2023-02-11T09:25:46.152Z,9774.08
2023-02-11T09:26:46.262Z,9676.8
2023-02-11T09:27:46.413Z,9328.64
2023-02-11T09:28:46.583Z,8125.44
2023-02-11T09:29:47.299Z,7413.76
2023-02-11T09:30:46.944Z,8657.92
2023-02-11T09:31:47.116Z,8463.359
2023-02-11T09:32:47.072Z,7260.16
2023-02-11T09:33:47.229Z,6533.12
2023-02-11T09:34:47.376Z,6599.68
2023-02-11T09:35:47.526Z,6568.96
2023-02-11T09:36:47.692Z,5688.32
2023-02-11T09:37:47.833Z,5775.36
2023-02-11T09:38:47.983Z,7040
2023-02-11T09:39:48.146Z,6952.96
2023-02-11T09:40:48.530Z,6041.6
2023-02-11T09:41:48.450Z,5350.4
2023-02-11T09:42:48.586Z,5230.08
2023-02-11T09:43:48.745Z,5209.6
2023-02-11T09:44:49.462Z,3993.6
2023-02-11T09:45:49.057Z,3709.44
2023-02-11T09:46:49.109Z,3927.04
2023-02-11T09:47:49.245Z,4613.12
2023-02-11T09:48:49.419Z,4866.56
2023-02-11T09:49:49.545Z,4930.56
2023-02-11T09:50:49.921Z,4277.76
2023-02-11T09:51:49.855Z,3499.52
2023-02-11T09:52:50.004Z,3153.92
2023-02-11T09:53:50.147Z,3220.48
2023-02-11T09:54:50.262Z,3445.76
2023-02-11T09:55:50.407Z,3415.04
2023-02-11T09:56:50.571Z,3412.48
2023-02-11T09:57:50.749Z,3402.24
2023-02-11T09:58:50.868Z,3404.8
2023-02-11T09:59:51.665Z,3563.52
2023-02-11T10:00:51.464Z,3886.08
2023-02-11T10:01:51.347Z,4272.64
2023-02-11T10:02:51.404Z,5268.48
2023-02-11T10:03:51.529Z,5473.28
2023-02-11T10:04:51.679Z,5539.84
2023-02-11T10:05:51.789Z,6384.64
2023-02-11T10:06:51.925Z,6328.32
2023-02-11T10:07:52.154Z,7951.36
2023-02-11T10:08:52.230Z,8657.92
2023-02-11T10:09:52.394Z,8325.12
2023-02-11T10:10:52.838Z,7833.6
2023-02-11T10:11:52.687Z,7966.72
2023-02-11T10:12:52.848Z,8821.76
2023-02-11T10:13:52.996Z,9728
2023-02-11T10:14:53.640Z,10557.439
2023-02-11T10:15:53.326Z,9968.64
2023-02-11T10:16:53.385Z,9937.92
2023-02-11T10:17:53.544Z,9902.08
2023-02-11T10:18:53.665Z,10076.16
2023-02-11T10:19:53.760Z,8898.56
2023-02-11T10:20:53.891Z,8673.28
2023-02-11T10:21:54.054Z,8360.96
2023-02-11T10:22:54.188Z,8504.319
2023-02-11T10:23:54.304Z,8407.04
2023-02-11T10:24:54.476Z,7987.2
2023-02-11T10:25:54.650Z,7454.72
2023-02-11T10:26:54.766Z,6707.2
2023-02-11T10:27:54.951Z,6190.08
2023-02-11T10:28:55.081Z,6737.92
2023-02-11T10:29:55.718Z,6824.96
2023-02-11T10:30:55.729Z,7618.56
2023-02-11T10:31:58.172Z,6912
2023-02-11T10:32:55.622Z,6272
2023-02-11T10:33:55.779Z,6164.48
2023-02-11T10:34:55.897Z,6502.4
2023-02-11T10:35:56.050Z,6394.88
2023-02-11T10:36:56.193Z,7393.28
2023-02-11T10:37:56.364Z,7700.48
2023-02-11T10:38:56.498Z,8135.68
2023-02-11T10:39:56.627Z,8412.16
2023-02-11T10:40:56.747Z,8693.76
2023-02-11T10:41:56.902Z,8872.96
2023-02-11T10:42:57.032Z,8944.64
2023-02-11T10:43:57.145Z,9518.08
2023-02-11T10:44:57.291Z,10547.2
2023-02-11T10:45:57.390Z,9809.92
2023-02-11T10:46:57.486Z,9251.84
2023-02-11T10:47:57.624Z,9794.56
2023-02-11T10:48:57.810Z,10060.8
2023-02-11T10:49:57.896Z,10449.92
2023-02-11T10:50:57.991Z,10291.2
2023-02-11T10:51:58.098Z,9103.359
2023-02-11T10:52:58.241Z,8171.52
2023-02-11T10:53:58.385Z,8965.12
2023-02-11T10:54:58.551Z,8975.359
2023-02-11T10:55:58.703Z,9856
2023-02-11T10:56:58.886Z,10752
2023-02-11T10:57:59.027Z,10526.72
2023-02-11T10:58:59.169Z,10214.399
2023-02-11T10:59:59.782Z,9866.24
2023-02-11T11:00:59.401Z,9973.76
2023-02-11T11:01:59.606Z,10439.68
2023-02-11T11:02:59.719Z,10168.319
2023-02-11T11:03:59.912Z,10629.12
2023-02-11T11:05:00.069Z,11100.16
2023-02-11T11:06:00.212Z,11008
2023-02-11T11:07:00.317Z,11212.8
2023-02-11T11:08:00.433Z,11304.96
2023-02-11T11:09:00.604Z,10844.16
2023-02-11T11:10:00.737Z,10936.319
2023-02-11T11:11:00.889Z,10874.88
2023-02-11T11:12:01.052Z,10234.88
2023-02-11T11:13:01.217Z,9794.56
2023-02-11T11:14:01.347Z,9482.24
2023-02-11T11:15:01.957Z,9180.16
2023-02-11T11:16:01.636Z,8586.24
2023-02-11T11:17:01.805Z,7889.92
2023-02-11T11:18:19.352Z,8524.8
2023-02-11T11:19:02.101Z,8227.84
2023-02-11T11:20:02.264Z,8729.6
2023-02-11T11:21:02.709Z,8360.96
2023-02-11T11:22:02.527Z,8012.8
2023-02-11T11:23:03.011Z,8739.84
2023-02-11T11:24:02.828Z,9123.84
2023-02-11T11:25:02.989Z,9415.68
2023-02-11T11:26:03.089Z,8913.92
2023-02-11T11:27:03.233Z,8202.24
2023-02-11T11:28:04.006Z,7296
2023-02-11T11:29:03.903Z,7265.28
2023-02-11T11:30:04.223Z,6179.84
2023-02-11T11:31:03.892Z,5672.96
2023-02-11T11:32:04.032Z,5560.32
2023-02-11T11:33:04.049Z,6343.68
2023-02-11T11:34:04.155Z,6553.6
2023-02-11T11:35:04.310Z,6246.4
2023-02-11T11:36:04.407Z,6287.36
2023-02-11T11:37:04.505Z,6138.88
2023-02-11T11:38:04.675Z,6302.72
2023-02-11T11:39:04.761Z,6179.84
2023-02-11T11:40:04.866Z,5268.48
2023-02-11T11:41:05.017Z,5580.8
2023-02-11T11:42:05.193Z,5893.12
2023-02-11T11:43:05.353Z,6000.64
2023-02-11T11:44:05.468Z,5898.24
2023-02-11T11:45:06.274Z,6123.52
2023-02-11T11:46:05.764Z,5760
2023-02-11T11:47:05.923Z,6082.56
2023-02-11T11:48:06.119Z,7531.52
2023-02-11T11:49:06.241Z,8499.2
2023-02-11T11:50:06.387Z,9128.96
2023-02-11T11:51:06.540Z,9876.479
2023-02-11T11:52:06.689Z,9154.56
2023-02-11T11:53:06.837Z,9082.88
2023-02-11T11:54:06.981Z,9236.479
2023-02-11T11:55:07.153Z,8801.28
2023-02-11T11:56:07.308Z,7746.56
2023-02-11T11:57:07.436Z,7459.84
2023-02-11T11:58:07.539Z,7690.24
2023-02-11T11:59:07.690Z,8058.88
2023-02-11T12:00:08.574Z,7500.8
2023-02-11T12:01:07.965Z,7454.72
2023-02-11T12:02:08.642Z,7091.2
2023-02-11T12:03:08.315Z,7941.12
2023-02-11T12:04:08.421Z,8279.04
2023-02-11T12:05:08.585Z,8576
2023-02-11T12:06:08.745Z,8130.56
2023-02-11T12:07:08.858Z,7613.44
2023-02-11T12:08:09.008Z,6860.8
2023-02-11T12:09:09.164Z,6312.96
2023-02-11T12:10:09.300Z,6241.28
2023-02-11T12:11:09.427Z,6272
2023-02-11T12:12:09.561Z,5959.68
2023-02-11T12:13:09.747Z,6092.8
2023-02-11T12:14:09.941Z,6108.16
2023-02-11T12:15:10.580Z,5980.16
2023-02-11T12:16:10.211Z,5667.84
2023-02-11T12:17:10.320Z,5683.2
2023-02-11T12:18:10.423Z,5406.72
2023-02-11T12:19:10.796Z,5035.52
2023-02-11T12:20:10.678Z,4884.48
2023-02-11T12:21:10.784Z,4984.32
2023-02-11T12:22:10.944Z,4938.24
2023-02-11T12:23:11.096Z,4968.96
2023-02-11T12:24:11.251Z,5007.36
2023-02-11T12:25:11.390Z,5032.96
2023-02-11T12:26:11.515Z,5222.4
2023-02-11T12:27:11.674Z,5534.72
2023-02-11T12:28:11.862Z,5148.16
2023-02-11T12:29:11.993Z,5032.96
2023-02-11T12:30:12.599Z,4587.52
2023-02-11T12:31:13.307Z,4531.2
2023-02-11T12:32:12.532Z,4999.68
2023-02-11T12:33:12.586Z,5381.12
2023-02-11T12:34:12.696Z,5493.76
2023-02-11T12:35:12.788Z,5416.96
2023-02-11T12:36:12.952Z,5319.68
2023-02-11T12:37:13.110Z,5324.8
2023-02-11T12:38:13.257Z,5329.92
2023-02-11T12:39:13.418Z,5235.2
2023-02-11T12:40:13.606Z,5035.52
2023-02-11T12:41:13.653Z,4787.2
2023-02-11T12:42:13.812Z,4748.8
2023-02-11T12:43:13.958Z,4451.84
2023-02-11T12:44:14.117Z,4170.24
2023-02-11T12:45:14.824Z,4241.92
2023-02-11T12:46:14.481Z,4190.72
2023-02-11T12:47:14.529Z,4195.84
2023-02-11T12:48:14.673Z,4116.48